createdAt,value
2018-08-20T00:02:04.922Z,77.20
2018-08-20T00:04:37.796Z,77.20
2018-08-20T00:07:06.523Z,77.20
2018-08-20T00:09:40.660Z,77.20
2018-08-20T00:12:09.570Z,77.20
2018-08-20T00:14:38.336Z,77.20
2018-08-20T00:17:07.008Z,77.20
2018-08-20T00:19:34.691Z,77.30
2018-08-20T00:22:02.359Z,77.20
2018-08-20T00:24:30.907Z,77.20
2018-08-20T00:27:01.257Z,77.20
2018-08-20T00:29:29.850Z,77.10
2018-08-20T00:31:58.444Z,77.20
2018-08-20T00:34:27.000Z,77.10
2018-08-20T00:36:55.673Z,76.90
2018-08-20T00:39:23.339Z,77.20
2018-08-20T00:41:51.031Z,77.20
2018-08-20T00:44:18.708Z,77.10
2018-08-20T00:46:46.906Z,77.20
2018-08-20T00:49:17.099Z,77.20
2018-08-20T00:51:47.141Z,77.20
2018-08-20T00:54:17.100Z,77.00
2018-08-20T00:56:46.028Z,77.20
2018-08-20T00:59:15.732Z,77.20
2018-08-20T01:01:44.500Z,77.00
2018-08-20T01:04:13.261Z,77.10
2018-08-20T01:06:43.809Z,77.00
2018-08-20T01:09:11.480Z,77.10
2018-08-20T01:11:39.156Z,77.00
2018-08-20T01:14:06.823Z,77.10
2018-08-20T01:16:34.523Z,77.10
2018-08-20T01:19:02.190Z,77.10
2018-08-20T01:21:29.979Z,77.20
2018-08-20T01:23:58.657Z,77.00
2018-08-20T01:26:26.376Z,76.80
2018-08-20T01:28:54.036Z,76.80
2018-08-20T01:31:21.724Z,76.80
2018-08-20T01:33:49.412Z,76.90
2018-08-20T01:36:17.096Z,76.90
2018-08-20T01:38:45.191Z,77.00
2018-08-20T01:41:13.335Z,76.90
2018-08-20T01:43:41.088Z,76.80
2018-08-20T01:46:09.652Z,76.80
2018-08-20T01:48:38.228Z,76.90
2018-08-20T01:51:06.959Z,76.90
2018-08-20T01:53:34.640Z,76.80
2018-08-20T01:56:03.329Z,77.00
2018-08-20T01:58:32.012Z,77.00
2018-08-20T02:00:59.676Z,77.00
2018-08-20T02:03:28.263Z,77.00
2018-08-20T02:05:55.939Z,77.10
2018-08-20T02:08:23.612Z,77.20
2018-08-20T02:10:51.287Z,77.20
2018-08-20T02:13:19.952Z,77.10
2018-08-20T02:15:47.614Z,77.10
2018-08-20T02:18:15.296Z,77.20
2018-08-20T02:20:44.482Z,77.20
2018-08-20T02:23:13.976Z,77.20
2018-08-20T02:25:43.584Z,77.00
2018-08-20T02:28:11.251Z,77.10
2018-08-20T02:30:39.992Z,77.00
2018-08-20T02:33:08.675Z,76.90
2018-08-20T02:35:37.364Z,77.10
2018-08-20T02:38:06.028Z,77.00
2018-08-20T02:40:34.732Z,77.00
2018-08-20T02:43:02.411Z,77.00
2018-08-20T02:45:30.921Z,76.90
2018-08-20T02:47:59.490Z,76.80
2018-08-20T02:50:28.069Z,77.00
2018-08-20T02:52:56.796Z,77.10
2018-08-20T02:55:25.469Z,76.90
2018-08-20T02:57:54.188Z,76.80
2018-08-20T03:00:21.850Z,77.00
2018-08-20T03:02:49.544Z,77.00
2018-08-20T03:05:17.239Z,77.10
2018-08-20T03:07:46.416Z,77.00
2018-08-20T03:10:15.093Z,77.10
2018-08-20T03:12:45.094Z,77.10
2018-08-20T03:15:15.077Z,77.00
2018-08-20T03:17:44.531Z,77.10
2018-08-20T03:20:13.751Z,77.10
2018-08-20T03:22:42.807Z,77.00
2018-08-20T03:25:11.588Z,77.00
2018-08-20T03:27:40.131Z,77.20
2018-08-20T03:30:08.456Z,77.10
2018-08-20T03:32:37.582Z,77.10
2018-08-20T03:35:06.984Z,77.00
2018-08-20T03:37:35.675Z,76.80
2018-08-20T03:40:04.719Z,77.10
2018-08-20T03:42:33.431Z,77.20
2018-08-20T03:45:02.176Z,77.00
2018-08-20T03:47:30.884Z,77.10
2018-08-20T03:49:59.547Z,77.20
2018-08-20T03:52:27.223Z,77.00
2018-08-20T03:54:55.913Z,77.10
2018-08-20T03:57:24.520Z,77.20
2018-08-20T03:59:53.196Z,77.10
2018-08-20T04:02:20.983Z,77.10
2018-08-20T04:04:49.684Z,77.20
2018-08-20T04:07:18.376Z,77.10
2018-08-20T04:09:47.065Z,77.10
2018-08-20T04:12:15.425Z,77.10
2018-08-20T04:14:45.356Z,77.00
2018-08-20T04:17:14.672Z,76.90
2018-08-20T04:19:44.463Z,77.00
2018-08-20T04:22:13.620Z,77.00
2018-08-20T04:24:41.335Z,76.90
2018-08-20T04:27:10.008Z,76.90
2018-08-20T04:29:37.706Z,76.80
2018-08-20T04:32:06.400Z,76.70
2018-08-20T04:34:35.108Z,76.80
2018-08-20T04:37:03.784Z,77.00
2018-08-20T04:39:32.524Z,77.00
2018-08-20T04:42:01.209Z,76.90
2018-08-20T04:44:29.948Z,76.80
2018-08-20T04:46:57.619Z,76.90
2018-08-20T04:49:26.317Z,76.90
2018-08-20T04:51:53.993Z,76.90
2018-08-20T04:54:22.709Z,76.80
2018-08-20T04:56:51.427Z,76.90
2018-08-20T04:59:20.140Z,77.30
2018-08-20T05:01:47.872Z,76.80
2018-08-20T05:04:15.559Z,76.80
2018-08-20T05:06:44.698Z,76.80
2018-08-20T05:09:14.767Z,76.80
2018-08-20T05:11:43.692Z,76.70
2018-08-20T05:14:12.820Z,76.80
2018-08-20T05:16:41.951Z,76.70
2018-08-20T05:19:10.664Z,76.60
2018-08-20T05:21:38.360Z,76.80
2018-08-20T05:24:06.223Z,76.70
2018-08-20T05:26:34.894Z,76.70
2018-08-20T05:29:02.563Z,76.60
2018-08-20T05:31:31.133Z,76.60
2018-08-20T05:33:58.810Z,76.60
2018-08-20T05:36:27.391Z,76.40
2018-08-20T05:38:56.072Z,76.50
2018-08-20T05:41:24.645Z,76.30
2018-08-20T05:43:52.328Z,76.20
2018-08-20T05:46:20.874Z,76.40
2018-08-20T05:48:49.624Z,76.50
2018-08-20T05:51:18.307Z,76.30
2018-08-20T05:53:47.004Z,76.10
2018-08-20T05:56:15.699Z,76.20
2018-08-20T05:58:45.854Z,76.10
2018-08-20T06:01:15.420Z,76.20
2018-08-20T06:03:44.112Z,76.40
2018-08-20T06:06:13.764Z,76.60
2018-08-20T06:08:41.494Z,76.80
2018-08-20T06:11:10.109Z,76.70
2018-08-20T06:13:38.789Z,76.80
2018-08-20T06:16:07.537Z,77.10
2018-08-20T06:18:36.089Z,77.00
2018-08-20T06:21:04.784Z,77.20
2018-08-20T06:23:33.465Z,77.30
2018-08-20T06:26:02.043Z,77.00
2018-08-20T06:28:30.752Z,76.80
2018-08-20T06:30:59.462Z,77.00
2018-08-20T06:33:27.134Z,77.10
2018-08-20T06:35:54.807Z,76.90
2018-08-20T06:38:22.487Z,77.00
2018-08-20T06:40:50.166Z,77.10
2018-08-20T06:43:17.851Z,77.00
2018-08-20T06:45:46.004Z,76.70
2018-08-20T06:48:14.416Z,77.10
2018-08-20T06:50:43.411Z,76.80
2018-08-20T06:53:11.088Z,76.90
2018-08-20T06:55:38.760Z,77.20
2018-08-20T06:58:06.443Z,76.80
2018-08-20T07:00:34.127Z,76.80
2018-08-20T07:03:01.796Z,76.70
2018-08-20T07:05:29.472Z,76.80
2018-08-20T07:07:57.131Z,76.80
2018-08-20T07:10:25.493Z,77.00
2018-08-20T07:12:53.165Z,76.90
2018-08-20T07:15:20.856Z,76.80
2018-08-20T07:17:48.521Z,76.90
2018-08-20T07:20:17.196Z,77.00
2018-08-20T07:22:45.669Z,76.90
2018-08-20T07:25:13.404Z,76.90
2018-08-20T07:27:41.071Z,77.00
2018-08-20T07:30:09.739Z,76.90
2018-08-20T07:32:37.412Z,77.00
2018-08-20T07:35:05.084Z,76.90
2018-08-20T07:37:32.764Z,77.00
2018-08-20T07:40:00.436Z,77.00
2018-08-20T07:42:28.196Z,77.00
2018-08-20T07:44:55.835Z,77.00
2018-08-20T07:47:23.532Z,76.90
2018-08-20T07:49:51.212Z,77.00
2018-08-20T07:52:18.900Z,76.90
2018-08-20T07:54:46.565Z,76.90
2018-08-20T07:57:15.349Z,76.90
2018-08-20T07:59:45.039Z,77.00
2018-08-20T08:02:13.266Z,77.00
2018-08-20T08:04:40.932Z,77.70
2018-08-20T08:07:08.600Z,77.10
2018-08-20T08:09:36.558Z,76.90
2018-08-20T08:12:05.329Z,76.90
2018-08-20T08:14:33.032Z,77.00
2018-08-20T08:17:00.708Z,77.00
2018-08-20T08:19:28.371Z,76.90
2018-08-20T08:21:56.921Z,77.10
2018-08-20T08:24:24.586Z,76.90
2018-08-20T08:26:53.281Z,77.10
2018-08-20T08:29:21.989Z,76.90
2018-08-20T08:31:50.579Z,77.10
2018-08-20T08:34:19.294Z,77.00
2018-08-20T08:36:47.951Z,77.00
2018-08-20T08:39:16.640Z,77.10
2018-08-20T08:41:46.639Z,77.10
2018-08-20T08:44:17.047Z,77.10
2018-08-20T08:46:45.631Z,77.20
2018-08-20T08:49:14.349Z,77.10
2018-08-20T08:51:43.352Z,77.00
2018-08-20T08:54:11.995Z,77.00
2018-08-20T08:56:42.424Z,77.00
2018-08-20T08:59:11.097Z,77.10
2018-08-20T09:01:39.789Z,77.40
2018-08-20T09:04:07.481Z,77.10
2018-08-20T09:06:36.188Z,77.10
2018-08-20T09:09:04.149Z,77.10
2018-08-20T09:11:32.823Z,77.00
2018-08-20T09:14:01.529Z,77.20
2018-08-20T09:16:30.236Z,77.10
2018-08-20T09:18:58.921Z,77.10
2018-08-20T09:21:27.615Z,77.10
2018-08-20T09:23:55.304Z,77.20
2018-08-20T09:26:23.869Z,77.10
2018-08-20T09:28:52.446Z,77.20
2018-08-20T09:31:20.197Z,77.20
2018-08-20T09:33:48.769Z,77.10
2018-08-20T09:36:17.326Z,77.10
2018-08-20T09:38:46.096Z,77.20
2018-08-20T09:41:15.718Z,77.30
2018-08-20T09:43:45.789Z,77.10
2018-08-20T09:46:14.516Z,77.20
2018-08-20T09:48:43.413Z,77.20
2018-08-20T09:51:11.080Z,77.20
2018-08-20T09:53:39.670Z,77.20
2018-08-20T09:56:08.400Z,77.20
2018-08-20T09:58:36.068Z,77.50
2018-08-20T10:01:03.740Z,77.40
2018-08-20T10:03:31.405Z,77.30
2018-08-20T10:05:59.077Z,77.20
2018-08-20T10:08:26.753Z,77.30
2018-08-20T10:10:54.428Z,77.30
2018-08-20T10:13:22.088Z,77.30
2018-08-20T10:15:49.768Z,77.40
2018-08-20T10:18:17.503Z,77.40
2018-08-20T10:20:45.536Z,77.30
2018-08-20T10:23:15.400Z,77.30
2018-08-20T10:25:43.835Z,77.30
2018-08-20T10:28:12.929Z,77.40
2018-08-20T10:30:40.608Z,77.40
2018-08-20T10:33:09.304Z,77.40
2018-08-20T10:35:37.976Z,77.30
2018-08-20T10:38:06.789Z,77.40
2018-08-20T10:40:34.440Z,77.30
2018-08-20T10:43:03.144Z,77.30
2018-08-20T10:45:36.077Z,77.30
2018-08-20T10:48:04.964Z,77.40
2018-08-20T10:50:32.637Z,77.40
2018-08-20T10:53:01.214Z,77.50
2018-08-20T10:55:28.887Z,77.30
2018-08-20T10:57:57.495Z,77.30
2018-08-20T11:00:26.067Z,77.30
2018-08-20T11:02:53.880Z,77.30
2018-08-20T11:05:22.565Z,77.30
2018-08-20T11:07:51.260Z,77.30
2018-08-20T11:10:19.841Z,77.40
2018-08-20T11:12:48.524Z,77.30
2018-08-20T11:15:17.201Z,77.50
2018-08-20T11:17:45.923Z,77.30
2018-08-20T11:20:16.556Z,77.30
2018-08-20T11:22:45.974Z,77.40
2018-08-20T11:25:16.139Z,77.30
2018-08-20T11:27:45.730Z,77.40
2018-08-20T11:30:15.649Z,77.50
2018-08-20T11:32:44.803Z,77.30
2018-08-20T11:35:14.667Z,78.00
2018-08-20T11:37:44.554Z,77.40
2018-08-20T11:40:13.180Z,77.40
2018-08-20T11:42:41.776Z,77.50
2018-08-20T11:45:11.664Z,77.50
2018-08-20T11:47:40.258Z,77.40
2018-08-20T11:50:07.947Z,77.40
2018-08-20T11:52:37.195Z,77.40
2018-08-20T11:55:05.885Z,77.40
2018-08-20T11:57:33.581Z,77.40
2018-08-20T12:00:02.289Z,77.40
2018-08-20T12:02:31.341Z,77.40
2018-08-20T12:04:59.931Z,77.20
2018-08-20T12:07:28.771Z,77.30
2018-08-20T12:09:57.434Z,77.40
2018-08-20T12:12:26.122Z,77.40
2018-08-20T12:14:53.816Z,77.40
2018-08-20T12:17:22.596Z,77.30
2018-08-20T12:19:51.344Z,77.30
2018-08-20T12:22:19.927Z,77.40
2018-08-20T12:24:48.648Z,77.50
2018-08-20T12:27:17.320Z,77.40
2018-08-20T12:29:46.028Z,77.40
2018-08-20T12:32:15.506Z,77.50
2018-08-20T12:34:45.640Z,77.40
2018-08-20T12:37:15.772Z,77.40
2018-08-20T12:39:45.879Z,77.30
2018-08-20T12:42:14.469Z,77.40
2018-08-20T12:44:42.984Z,77.40
2018-08-20T12:47:10.672Z,77.40
2018-08-20T12:49:38.335Z,77.30
2018-08-20T12:52:06.035Z,77.40
2018-08-20T12:54:33.713Z,77.50
2018-08-20T12:57:01.383Z,77.40
2018-08-20T12:59:29.089Z,77.50
2018-08-20T13:01:56.755Z,77.30
2018-08-20T13:04:24.424Z,77.50
2018-08-20T13:06:52.096Z,77.50
2018-08-20T13:09:19.772Z,77.40
2018-08-20T13:11:47.444Z,77.50
2018-08-20T13:14:16.456Z,77.40
2018-08-20T13:16:45.992Z,77.50
2018-08-20T13:19:14.933Z,77.50
2018-08-20T13:21:45.030Z,77.50
2018-08-20T13:24:13.917Z,77.50
2018-08-20T13:26:43.812Z,77.50
2018-08-20T13:29:11.472Z,77.60
2018-08-20T13:31:39.149Z,77.60
2018-08-20T13:34:06.944Z,77.60
2018-08-20T13:36:34.632Z,77.60
2018-08-20T13:39:03.467Z,77.60
2018-08-20T13:41:32.008Z,77.80
2018-08-20T13:44:00.764Z,77.60
2018-08-20T13:46:29.316Z,77.60
2018-08-20T13:48:56.979Z,77.60
2018-08-20T13:51:24.657Z,78.00
2018-08-20T13:53:52.345Z,77.60
2018-08-20T13:56:20.062Z,77.60
2018-08-20T13:58:48.800Z,77.60
2018-08-20T14:01:17.501Z,77.60
2018-08-20T14:03:46.940Z,78.30
2018-08-20T14:06:15.664Z,77.70
2018-08-20T14:08:44.848Z,77.70
2018-08-20T14:11:13.940Z,77.70
2018-08-20T14:13:41.610Z,77.60
2018-08-20T14:16:10.176Z,77.60
2018-08-20T14:18:37.848Z,77.60
2018-08-20T14:21:21.086Z,77.60
2018-08-20T14:23:50.108Z,77.60
2018-08-20T14:26:25.384Z,77.60
2018-08-20T14:28:54.080Z,77.70
2018-08-20T14:31:23.377Z,77.60
2018-08-20T14:33:51.061Z,77.60
2018-08-20T14:36:19.787Z,77.60
2018-08-20T14:38:48.496Z,77.70
2018-08-20T14:41:17.228Z,77.60
2018-08-20T14:43:45.917Z,77.60
2018-08-20T14:46:20.984Z,77.60
2018-08-20T14:48:50.088Z,77.60
2018-08-20T14:51:18.657Z,77.70
2018-08-20T14:53:47.340Z,77.60
2018-08-20T14:56:16.070Z,77.80
2018-08-20T14:58:45.293Z,77.80
2018-08-20T15:01:15.119Z,77.80
2018-08-20T15:03:44.762Z,77.70
2018-08-20T15:06:14.500Z,77.70
2018-08-20T15:08:44.004Z,77.70
2018-08-20T15:11:13.657Z,77.70
2018-08-20T15:13:43.314Z,77.80
2018-08-20T15:16:11.882Z,77.80
2018-08-20T15:18:40.425Z,77.80
2018-08-20T15:21:09.118Z,77.70
2018-08-20T15:23:37.840Z,77.70
2018-08-20T15:26:06.540Z,77.80
2018-08-20T15:28:35.219Z,77.80
2018-08-20T15:31:03.939Z,77.80
2018-08-20T15:33:32.790Z,77.80
2018-08-20T15:36:01.340Z,77.80
2018-08-20T15:38:29.913Z,77.90
2018-08-20T15:40:57.575Z,77.80
2018-08-20T15:43:26.132Z,77.90
2018-08-20T15:45:54.712Z,77.80
2018-08-20T15:48:23.401Z,77.90
2018-08-20T15:50:52.113Z,77.90
2018-08-20T15:53:20.778Z,77.80
2018-08-20T15:55:49.460Z,77.80
2018-08-20T15:58:17.139Z,77.80
2018-08-20T16:00:45.806Z,77.80
2018-08-20T16:03:14.820Z,77.80
2018-08-20T16:05:44.198Z,77.80
2018-08-20T16:08:14.309Z,77.90
2018-08-20T16:10:44.262Z,77.80
2018-08-20T16:13:11.936Z,77.80
2018-08-20T16:15:40.642Z,77.80
2018-08-20T16:18:08.328Z,77.80
2018-08-20T16:20:37.016Z,77.80
2018-08-20T16:23:04.716Z,77.90
2018-08-20T16:25:33.428Z,77.90
2018-08-20T16:28:01.125Z,78.00
2018-08-20T16:30:29.806Z,78.40
2018-08-20T16:32:58.508Z,78.00
2018-08-20T16:35:27.195Z,77.90
2018-08-20T16:37:55.914Z,77.90
2018-08-20T16:40:24.631Z,77.90
2018-08-20T16:42:53.325Z,78.00
2018-08-20T16:45:22.004Z,78.00
2018-08-20T16:47:50.695Z,78.10
2018-08-20T16:50:19.390Z,78.00
2018-08-20T16:52:48.092Z,78.00
2018-08-20T16:55:16.787Z,78.00
2018-08-20T16:57:45.515Z,78.00
2018-08-20T17:00:15.683Z,78.10
2018-08-20T17:02:45.857Z,78.00
2018-08-20T17:05:14.750Z,78.10
2018-08-20T17:07:44.657Z,78.10
2018-08-20T17:10:14.293Z,78.10
2018-08-20T17:12:42.753Z,78.10
2018-08-20T17:15:12.354Z,78.10
2018-08-20T17:17:40.368Z,78.10
2018-08-20T17:20:08.600Z,78.00
2018-08-20T17:22:36.264Z,78.10
2018-08-20T17:25:04.224Z,78.10
2018-08-20T17:27:31.896Z,78.10
2018-08-20T17:29:59.599Z,78.00
2018-08-20T17:32:27.272Z,78.70
2018-08-20T17:34:54.952Z,78.10
2018-08-20T17:37:23.524Z,78.10
2018-08-20T17:39:59.589Z,78.10
2018-08-20T17:42:28.765Z,78.20
2018-08-20T17:44:57.656Z,78.40
2018-08-20T17:47:27.324Z,78.20
2018-08-20T17:49:56.173Z,78.20
2018-08-20T17:52:28.565Z,78.20
2018-08-20T17:54:58.018Z,78.20
2018-08-20T17:57:25.715Z,78.20
2018-08-20T17:59:54.497Z,78.20
2018-08-20T18:02:23.426Z,78.20
2018-08-20T18:04:51.710Z,78.20
2018-08-20T18:07:19.382Z,78.20
2018-08-20T18:09:47.047Z,78.20
2018-08-20T18:12:15.920Z,78.20
2018-08-20T18:14:50.436Z,78.10
2018-08-20T18:17:18.361Z,77.70
2018-08-20T18:19:46.076Z,77.40
2018-08-20T18:22:15.141Z,77.30
2018-08-20T18:24:44.357Z,77.00
2018-08-20T18:27:12.026Z,76.90
2018-08-20T18:29:39.782Z,76.60
2018-08-20T18:32:07.439Z,76.40
2018-08-20T18:34:35.113Z,76.40
2018-08-20T18:37:03.165Z,76.40
2018-08-20T18:39:31.740Z,76.40
2018-08-20T18:42:20.579Z,76.40
2018-08-20T18:44:48.968Z,76.40
2018-08-20T18:47:17.889Z,76.60
2018-08-20T18:49:52.192Z,76.60
2018-08-20T18:52:20.528Z,76.60
2018-08-20T18:54:54.345Z,76.50
2018-08-20T18:57:24.114Z,76.60
2018-08-20T18:59:52.015Z,76.60
2018-08-20T19:02:31.595Z,76.60
2018-08-20T19:05:00.381Z,76.70
2018-08-20T19:07:28.392Z,76.80
2018-08-20T19:09:56.092Z,76.70
2018-08-20T19:12:23.793Z,76.70
2018-08-20T19:14:51.496Z,76.80
2018-08-20T19:17:23.506Z,76.70
2018-08-20T19:19:51.366Z,76.70
2018-08-20T19:22:25.260Z,76.80
2018-08-20T19:24:53.967Z,76.80
2018-08-20T19:27:26.459Z,76.80
2018-08-20T19:29:55.143Z,76.80
2018-08-20T19:32:23.864Z,76.80
2018-08-20T19:34:52.576Z,76.90
2018-08-20T19:37:21.251Z,76.90
2018-08-20T19:39:49.948Z,76.80
2018-08-20T19:42:34.815Z,77.00
2018-08-20T19:45:03.347Z,77.00
2018-08-20T19:47:31.064Z,77.00
2018-08-20T19:49:59.764Z,77.00
2018-08-20T19:52:28.544Z,77.10
2018-08-20T19:55:02.461Z,77.10
2018-08-20T19:57:30.784Z,77.10
2018-08-20T19:59:58.480Z,77.10
2018-08-20T20:02:26.240Z,77.10
2018-08-20T20:04:53.932Z,77.10
2018-08-20T20:07:22.488Z,77.10
2018-08-20T20:09:51.189Z,77.10
2018-08-20T20:12:19.925Z,77.20
2018-08-20T20:14:48.675Z,77.20
2018-08-20T20:17:16.424Z,77.20
2018-08-20T20:19:45.161Z,77.20
2018-08-20T20:22:15.184Z,77.20
2018-08-20T20:24:44.125Z,77.30
2018-08-20T20:27:14.517Z,77.20
2018-08-20T20:29:43.027Z,77.20
2018-08-20T20:32:10.700Z,77.30
2018-08-20T20:34:38.376Z,77.20
2018-08-20T20:37:06.949Z,77.30
2018-08-20T20:39:34.621Z,77.30
2018-08-20T20:42:03.221Z,77.30
2018-08-20T20:44:32.007Z,77.30
2018-08-20T20:47:00.701Z,77.30
2018-08-20T20:49:28.380Z,77.30
2018-08-20T20:51:56.053Z,77.30
2018-08-20T20:54:24.736Z,77.30
2018-08-20T20:56:53.414Z,77.30
2018-08-20T20:59:22.124Z,77.30
2018-08-20T21:01:49.811Z,77.40
2018-08-20T21:04:18.437Z,77.40
2018-08-20T21:06:46.098Z,77.40
2018-08-20T21:09:14.828Z,77.40
2018-08-20T21:11:46.716Z,77.40
2018-08-20T21:14:16.309Z,77.40
2018-08-20T21:16:46.070Z,77.50
2018-08-20T21:19:14.773Z,77.50
2018-08-20T21:21:46.088Z,77.50
2018-08-20T21:24:15.832Z,77.50
2018-08-20T21:26:45.775Z,77.50
2018-08-20T21:29:15.906Z,77.60
2018-08-20T21:31:50.199Z,77.60
2018-08-20T21:34:18.936Z,77.60
2018-08-20T21:36:46.632Z,77.50
2018-08-20T21:39:16.844Z,77.50
2018-08-20T21:41:47.081Z,77.50
2018-08-20T21:44:14.776Z,77.50
2018-08-20T21:46:45.857Z,77.50
2018-08-20T21:49:14.463Z,77.50
2018-08-20T21:51:48.390Z,77.50
2018-08-20T21:54:22.867Z,77.50
2018-08-20T21:56:52.741Z,77.60
2018-08-20T21:59:21.412Z,77.60
2018-08-20T22:01:50.010Z,77.60
2018-08-20T22:04:22.425Z,77.60
2018-08-20T22:06:50.456Z,77.60
2018-08-20T22:09:19.164Z,77.60
2018-08-20T22:11:47.867Z,77.60
2018-08-20T22:14:17.843Z,77.60
2018-08-20T22:16:47.515Z,77.60
2018-08-20T22:19:16.215Z,77.60
2018-08-20T22:21:45.040Z,77.60
2018-08-20T22:24:15.157Z,77.60
2018-08-20T22:27:01.617Z,77.60
2018-08-20T22:29:34.809Z,77.70
2018-08-20T22:32:04.647Z,77.70
2018-08-20T22:34:33.205Z,77.70
2018-08-20T22:37:08.916Z,77.70
2018-08-20T22:39:36.600Z,77.70
2018-08-20T22:42:04.290Z,77.80
2018-08-20T22:44:31.957Z,77.80
2018-08-20T22:46:59.629Z,77.80
2018-08-20T22:49:27.296Z,77.80
2018-08-20T22:51:54.961Z,77.70
2018-08-20T22:54:22.643Z,77.80
2018-08-20T22:56:50.312Z,77.80
2018-08-20T22:59:17.985Z,77.80
2018-08-20T23:01:45.909Z,77.80
2018-08-20T23:04:15.400Z,77.70
2018-08-20T23:06:44.924Z,77.70
2018-08-20T23:09:23.800Z,77.70
2018-08-20T23:11:51.480Z,77.80
2018-08-20T23:14:19.156Z,77.80
2018-08-20T23:16:47.825Z,77.80
2018-08-20T23:19:16.812Z,77.80
2018-08-20T23:21:46.512Z,77.80
2018-08-20T23:24:15.625Z,77.80
2018-08-20T23:26:45.452Z,77.80
2018-08-20T23:29:14.055Z,77.80
2018-08-20T23:31:41.896Z,77.80
2018-08-20T23:34:10.796Z,77.80
2018-08-20T23:36:38.788Z,77.80
2018-08-20T23:39:07.404Z,77.90
2018-08-20T23:41:35.068Z,77.80
2018-08-20T23:44:02.793Z,78.00
2018-08-20T23:46:33.104Z,77.80
2018-08-20T23:49:01.534Z,77.90
2018-08-20T23:51:29.223Z,77.80
2018-08-20T23:53:56.896Z,77.90
2018-08-20T23:56:24.555Z,78.00
2018-08-20T23:58:52.232Z,77.90
